sensor_id;sensor_type;location;lat;lon;timestamp;P1;durP1;ratioP1;P2;durP2;ratioP2
40022;SDS011;25713;-35.352;149.036;2023-03-01T00:01:58;6.73;;;5.40;;
40022;SDS011;25713;-35.352;149.036;2023-03-01T00:04:27;6.07;;;5.00;;
40022;SDS011;25713;-35.352;149.036;2023-03-01T00:06:57;6.45;;;5.28;;
40022;SDS011;25713;-35.352;149.036;2023-03-01T00:09:26;7.03;;;5.35;;
40022;SDS011;25713;-35.352;149.036;2023-03-01T00:11:56;7.63;;;5.28;;
40022;SDS011;25713;-35.352;149.036;2023-03-01T00:14:25;6.15;;;5.20;;
40022;SDS011;25713;-35.352;149.036;2023-03-01T00:16:57;6.65;;;5.15;;
40022;SDS011;25713;-35.352;149.036;2023-03-01T00:19:27;7.22;;;5.15;;
40022;SDS011;25713;-35.352;149.036;2023-03-01T00:21:56;5.95;;;5.00;;
40022;SDS011;25713;-35.352;149.036;2023-03-01T00:24:25;5.40;;;4.65;;
40022;SDS011;25713;-35.352;149.036;2023-03-01T00:26:55;6.63;;;5.10;;
40022;SDS011;25713;-35.352;149.036;2023-03-01T00:29:25;7.20;;;5.07;;
40022;SDS011;25713;-35.352;149.036;2023-03-01T00:31:57;5.68;;;4.95;;
40022;SDS011;25713;-35.352;149.036;2023-03-01T00:34:27;5.23;;;4.43;;
40022;SDS011;25713;-35.352;149.036;2023-03-01T00:36:56;6.03;;;4.78;;
40022;SDS011;25713;-35.352;149.036;2023-03-01T00:39:26;6.53;;;4.60;;
40022;SDS011;25713;-35.352;149.036;2023-03-01T00:41:56;5.95;;;4.72;;
40022;SDS011;25713;-35.352;149.036;2023-03-01T00:44:26;5.75;;;4.65;;
40022;SDS011;25713;-35.352;149.036;2023-03-01T00:46:57;6.78;;;4.78;;
40022;SDS011;25713;-35.352;149.036;2023-03-01T00:49:27;7.20;;;5.00;;
40022;SDS011;25713;-35.352;149.036;2023-03-01T00:51:57;6.70;;;4.75;;
40022;SDS011;25713;-35.352;149.036;2023-03-01T00:54:26;5.55;;;4.45;;
40022;SDS011;25713;-35.352;149.036;2023-03-01T00:56:56;5.10;;;4.57;;
40022;SDS011;25713;-35.352;149.036;2023-03-01T00:59:26;6.55;;;4.65;;
40022;SDS011;25713;-35.352;149.036;2023-03-01T01:01:55;6.35;;;4.80;;
40022;SDS011;25713;-35.352;149.036;2023-03-01T01:04:26;6.83;;;4.70;;
40022;SDS011;25713;-35.352;149.036;2023-03-01T01:06:56;5.88;;;4.55;;
40022;SDS011;25713;-35.352;149.036;2023-03-01T01:09:25;6.63;;;4.35;;
40022;SDS011;25713;-35.352;149.036;2023-03-01T01:11:55;6.25;;;4.18;;
40022;SDS011;25713;-35.352;149.036;2023-03-01T01:14:24;6.47;;;4.35;;
40022;SDS011;25713;-35.352;149.036;2023-03-01T01:16:54;5.45;;;4.22;;
40022;SDS011;25713;-35.352;149.036;2023-03-01T01:19:26;5.35;;;4.20;;
40022;SDS011;25713;-35.352;149.036;2023-03-01T01:21:56;4.07;;;3.67;;
40022;SDS011;25713;-35.352;149.036;2023-03-01T01:24:25;6.25;;;4.25;;
40022;SDS011;25713;-35.352;149.036;2023-03-01T01:26:54;6.13;;;4.03;;
40022;SDS011;25713;-35.352;149.036;2023-03-01T01:29:24;4.18;;;3.78;;
40022;SDS011;25713;-35.352;149.036;2023-03-01T01:31:54;4.50;;;3.53;;
40022;SDS011;25713;-35.352;149.036;2023-03-01T01:34:25;3.92;;;3.53;;
40022;SDS011;25713;-35.352;149.036;2023-03-01T01:36:55;4.57;;;3.63;;
40022;SDS011;25713;-35.352;149.036;2023-03-01T01:39:24;4.65;;;3.65;;
40022;SDS011;25713;-35.352;149.036;2023-03-01T01:41:53;5.35;;;3.67;;
40022;SDS011;25713;-35.352;149.036;2023-03-01T01:44:24;4.45;;;3.80;;
40022;SDS011;25713;-35.352;149.036;2023-03-01T01:46:55;5.97;;;3.03;;
40022;SDS011;25713;-35.352;149.036;2023-03-01T01:49:32;6.30;;;3.78;;
40022;SDS011;25713;-35.352;149.036;2023-03-01T01:52:06;5.97;;;3.60;;
40022;SDS011;25713;-35.352;149.036;2023-03-01T01:54:39;5.13;;;3.20;;
40022;SDS011;25713;-35.352;149.036;2023-03-01T01:57:13;4.30;;;3.35;;
40022;SDS011;25713;-35.352;149.036;2023-03-01T01:59:47;3.45;;;3.10;;
40022;SDS011;25713;-35.352;149.036;2023-03-01T02:02:20;5.97;;;3.38;;
40022;SDS011;25713;-35.352;149.036;2023-03-01T02:04:52;3.95;;;3.22;;
40022;SDS011;25713;-35.352;149.036;2023-03-01T02:07:28;4.53;;;3.35;;
40022;SDS011;25713;-35.352;149.036;2023-03-01T02:10:00;3.87;;;2.60;;
40022;SDS011;25713;-35.352;149.036;2023-03-01T02:12:29;3.00;;;2.63;;
40022;SDS011;25713;-35.352;149.036;2023-03-01T02:15:00;4.03;;;3.00;;
40022;SDS011;25713;-35.352;149.036;2023-03-01T02:17:30;4.13;;;2.97;;
40022;SDS011;25713;-35.352;149.036;2023-03-01T02:20:06;3.88;;;2.70;;
40022;SDS011;25713;-35.352;149.036;2023-03-01T02:22:44;3.03;;;2.70;;
40022;SDS011;25713;-35.352;149.036;2023-03-01T02:25:25;3.22;;;2.70;;
40022;SDS011;25713;-35.352;149.036;2023-03-01T02:27:58;3.60;;;2.85;;
40022;SDS011;25713;-35.352;149.036;2023-03-01T02:30:36;5.70;;;2.65;;
40022;SDS011;25713;-35.352;149.036;2023-03-01T02:33:06;3.97;;;3.15;;
40022;SDS011;25713;-35.352;149.036;2023-03-01T02:35:35;3.50;;;2.65;;
40022;SDS011;25713;-35.352;149.036;2023-03-01T02:38:06;4.82;;;2.85;;
40022;SDS011;25713;-35.352;149.036;2023-03-01T02:40:37;2.90;;;2.40;;
40022;SDS011;25713;-35.352;149.036;2023-03-01T02:43:09;3.33;;;2.60;;
40022;SDS011;25713;-35.352;149.036;2023-03-01T02:45:47;7.60;;;2.22;;
40022;SDS011;25713;-35.352;149.036;2023-03-01T02:48:17;3.80;;;2.63;;
40022;SDS011;25713;-35.352;149.036;2023-03-01T02:50:54;3.03;;;2.63;;
40022;SDS011;25713;-35.352;149.036;2023-03-01T02:53:34;5.03;;;2.40;;
40022;SDS011;25713;-35.352;149.036;2023-03-01T02:56:12;4.13;;;2.40;;
40022;SDS011;25713;-35.352;149.036;2023-03-01T02:58:43;2.85;;;2.38;;
40022;SDS011;25713;-35.352;149.036;2023-03-01T03:01:16;3.80;;;2.50;;
40022;SDS011;25713;-35.352;149.036;2023-03-01T03:03:46;2.80;;;2.30;;
40022;SDS011;25713;-35.352;149.036;2023-03-01T03:06:16;3.03;;;2.50;;
40022;SDS011;25713;-35.352;149.036;2023-03-01T03:08:45;3.40;;;2.85;;
40022;SDS011;25713;-35.352;149.036;2023-03-01T03:11:15;2.90;;;2.58;;
40022;SDS011;25713;-35.352;149.036;2023-03-01T03:13:44;2.75;;;2.33;;
40022;SDS011;25713;-35.352;149.036;2023-03-01T03:16:14;2.38;;;2.17;;
40022;SDS011;25713;-35.352;149.036;2023-03-01T03:18:45;3.20;;;2.40;;
40022;SDS011;25713;-35.352;149.036;2023-03-01T03:21:15;2.75;;;2.35;;
40022;SDS011;25713;-35.352;149.036;2023-03-01T03:23:45;2.92;;;2.45;;
40022;SDS011;25713;-35.352;149.036;2023-03-01T03:26:14;3.80;;;2.60;;
40022;SDS011;25713;-35.352;149.036;2023-03-01T03:28:44;3.58;;;2.50;;
40022;SDS011;25713;-35.352;149.036;2023-03-01T03:31:13;3.63;;;2.65;;
40022;SDS011;25713;-35.352;149.036;2023-03-01T03:33:45;2.40;;;2.20;;
40022;SDS011;25713;-35.352;149.036;2023-03-01T03:36:15;3.30;;;2.40;;
40022;SDS011;25713;-35.352;149.036;2023-03-01T03:38:46;2.88;;;2.10;;
40022;SDS011;25713;-35.352;149.036;2023-03-01T03:41:16;3.22;;;2.25;;
40022;SDS011;25713;-35.352;149.036;2023-03-01T03:43:45;2.53;;;2.33;;
40022;SDS011;25713;-35.352;149.036;2023-03-01T03:46:15;2.60;;;2.40;;
40022;SDS011;25713;-35.352;149.036;2023-03-01T03:48:46;3.22;;;2.55;;
40022;SDS011;25713;-35.352;149.036;2023-03-01T03:51:16;2.77;;;2.40;;
40022;SDS011;25713;-35.352;149.036;2023-03-01T03:53:46;2.67;;;2.22;;
40022;SDS011;25713;-35.352;149.036;2023-03-01T03:56:16;2.50;;;2.25;;
40022;SDS011;25713;-35.352;149.036;2023-03-01T03:58:45;4.80;;;2.78;;
40022;SDS011;25713;-35.352;149.036;2023-03-01T04:01:15;4.28;;;2.53;;
40022;SDS011;25713;-35.352;149.036;2023-03-01T04:03:48;2.65;;;2.40;;
40022;SDS011;25713;-35.352;149.036;2023-03-01T04:06:18;4.75;;;2.78;;
40022;SDS011;25713;-35.352;149.036;2023-03-01T04:08:47;3.22;;;2.47;;
40022;SDS011;25713;-35.352;149.036;2023-03-01T04:11:17;4.35;;;2.53;;
40022;SDS011;25713;-35.352;149.036;2023-03-01T04:13:46;3.03;;;2.13;;
40022;SDS011;25713;-35.352;149.036;2023-03-01T04:16:16;3.75;;;2.30;;
40022;SDS011;25713;-35.352;149.036;2023-03-01T04:18:47;2.97;;;2.40;;
40022;SDS011;25713;-35.352;149.036;2023-03-01T04:21:17;3.92;;;2.47;;
40022;SDS011;25713;-35.352;149.036;2023-03-01T04:23:47;3.70;;;2.55;;
40022;SDS011;25713;-35.352;149.036;2023-03-01T04:26:16;2.67;;;2.35;;
40022;SDS011;25713;-35.352;149.036;2023-03-01T04:28:46;3.38;;;2.13;;
40022;SDS011;25713;-35.352;149.036;2023-03-01T04:31:16;2.67;;;2.42;;
40022;SDS011;25713;-35.352;149.036;2023-03-01T04:33:48;3.00;;;2.30;;
40022;SDS011;25713;-35.352;149.036;2023-03-01T04:36:19;3.25;;;2.28;;
40022;SDS011;25713;-35.352;149.036;2023-03-01T04:38:49;3.30;;;2.47;;
40022;SDS011;25713;-35.352;149.036;2023-03-01T04:41:19;7.70;;;2.63;;
40022;SDS011;25713;-35.352;149.036;2023-03-01T04:43:49;7.68;;;2.40;;
40022;SDS011;25713;-35.352;149.036;2023-03-01T04:46:19;4.63;;;2.67;;
40022;SDS011;25713;-35.352;149.036;2023-03-01T04:48:50;5.10;;;2.65;;
40022;SDS011;25713;-35.352;149.036;2023-03-01T04:51:20;3.33;;;2.37;;
40022;SDS011;25713;-35.352;149.036;2023-03-01T04:53:49;6.28;;;2.67;;
40022;SDS011;25713;-35.352;149.036;2023-03-01T04:56:19;3.22;;;2.35;;
40022;SDS011;25713;-35.352;149.036;2023-03-01T04:58:48;3.00;;;2.35;;
40022;SDS011;25713;-35.352;149.036;2023-03-01T05:01:21;5.53;;;2.42;;
40022;SDS011;25713;-35.352;149.036;2023-03-01T05:03:52;4.22;;;2.67;;
40022;SDS011;25713;-35.352;149.036;2023-03-01T05:06:22;4.43;;;2.60;;
40022;SDS011;25713;-35.352;149.036;2023-03-01T05:08:51;6.70;;;2.58;;
40022;SDS011;25713;-35.352;149.036;2023-03-01T05:11:21;2.50;;;2.20;;
40022;SDS011;25713;-35.352;149.036;2023-03-01T05:14:09;3.72;;;2.60;;
40022;SDS011;25713;-35.352;149.036;2023-03-01T05:16:39;5.82;;;2.88;;
40022;SDS011;25713;-35.352;149.036;2023-03-01T05:19:10;4.53;;;2.33;;
40022;SDS011;25713;-35.352;149.036;2023-03-01T05:21:40;2.73;;;2.10;;
40022;SDS011;25713;-35.352;149.036;2023-03-01T05:24:10;4.95;;;2.80;;
40022;SDS011;25713;-35.352;149.036;2023-03-01T05:26:39;3.70;;;2.60;;
40022;SDS011;25713;-35.352;149.036;2023-03-01T05:29:08;3.35;;;2.00;;
40022;SDS011;25713;-35.352;149.036;2023-03-01T05:31:38;3.90;;;2.20;;
40022;SDS011;25713;-35.352;149.036;2023-03-01T05:34:07;9.00;;;2.40;;
40022;SDS011;25713;-35.352;149.036;2023-03-01T05:36:38;7.77;;;2.07;;
40022;SDS011;25713;-35.352;149.036;2023-03-01T05:39:08;4.70;;;2.38;;
40022;SDS011;25713;-35.352;149.036;2023-03-01T05:41:37;3.08;;;2.20;;
40022;SDS011;25713;-35.352;149.036;2023-03-01T05:44:06;2.60;;;2.03;;
40022;SDS011;25713;-35.352;149.036;2023-03-01T05:46:36;3.22;;;2.20;;
40022;SDS011;25713;-35.352;149.036;2023-03-01T05:49:05;3.22;;;2.00;;
40022;SDS011;25713;-35.352;149.036;2023-03-01T05:51:36;4.18;;;2.40;;
40022;SDS011;25713;-35.352;149.036;2023-03-01T05:54:06;2.88;;;1.90;;
40022;SDS011;25713;-35.352;149.036;2023-03-01T05:56:36;2.72;;;1.95;;
40022;SDS011;25713;-35.352;149.036;2023-03-01T05:59:05;3.58;;;2.10;;
40022;SDS011;25713;-35.352;149.036;2023-03-01T06:01:35;3.15;;;1.92;;
40022;SDS011;25713;-35.352;149.036;2023-03-01T06:04:05;2.65;;;2.25;;
40022;SDS011;25713;-35.352;149.036;2023-03-01T06:06:36;2.70;;;2.30;;
40022;SDS011;25713;-35.352;149.036;2023-03-01T06:09:06;3.25;;;2.42;;
40022;SDS011;25713;-35.352;149.036;2023-03-01T06:11:36;2.63;;;2.10;;
40022;SDS011;25713;-35.352;149.036;2023-03-01T06:14:06;2.55;;;1.88;;
40022;SDS011;25713;-35.352;149.036;2023-03-01T06:16:35;3.85;;;1.88;;
40022;SDS011;25713;-35.352;149.036;2023-03-01T06:19:04;2.83;;;1.92;;
40022;SDS011;25713;-35.352;149.036;2023-03-01T06:21:34;2.40;;;1.90;;
40022;SDS011;25713;-35.352;149.036;2023-03-01T06:24:05;2.43;;;1.97;;
40022;SDS011;25713;-35.352;149.036;2023-03-01T06:26:35;6.40;;;2.10;;
40022;SDS011;25713;-35.352;149.036;2023-03-01T06:29:05;2.63;;;1.98;;
40022;SDS011;25713;-35.352;149.036;2023-03-01T06:31:34;2.33;;;1.70;;
40022;SDS011;25713;-35.352;149.036;2023-03-01T06:34:03;3.95;;;1.65;;
40022;SDS011;25713;-35.352;149.036;2023-03-01T06:36:33;3.38;;;1.58;;
40022;SDS011;25713;-35.352;149.036;2023-03-01T06:39:04;2.45;;;1.60;;
40022;SDS011;25713;-35.352;149.036;2023-03-01T06:41:34;4.60;;;1.98;;
40022;SDS011;25713;-35.352;149.036;2023-03-01T06:44:03;5.05;;;1.70;;
40022;SDS011;25713;-35.352;149.036;2023-03-01T06:46:33;3.58;;;1.73;;
40022;SDS011;25713;-35.352;149.036;2023-03-01T06:49:03;2.15;;;1.40;;
40022;SDS011;25713;-35.352;149.036;2023-03-01T06:51:32;4.05;;;1.80;;
40022;SDS011;25713;-35.352;149.036;2023-03-01T06:54:03;1.60;;;1.50;;
40022;SDS011;25713;-35.352;149.036;2023-03-01T06:56:33;1.58;;;1.35;;
40022;SDS011;25713;-35.352;149.036;2023-03-01T06:59:02;1.92;;;1.48;;
40022;SDS011;25713;-35.352;149.036;2023-03-01T07:01:32;1.88;;;1.60;;
40022;SDS011;25713;-35.352;149.036;2023-03-01T07:04:02;3.20;;;1.88;;
40022;SDS011;25713;-35.352;149.036;2023-03-01T07:06:32;3.55;;;1.50;;
40022;SDS011;25713;-35.352;149.036;2023-03-01T07:09:03;2.35;;;1.60;;
40022;SDS011;25713;-35.352;149.036;2023-03-01T07:11:33;1.93;;;1.60;;
40022;SDS011;25713;-35.352;149.036;2023-03-01T07:14:02;3.40;;;1.70;;
40022;SDS011;25713;-35.352;149.036;2023-03-01T07:16:32;2.40;;;1.63;;
40022;SDS011;25713;-35.352;149.036;2023-03-01T07:19:01;3.25;;;1.38;;
40022;SDS011;25713;-35.352;149.036;2023-03-01T07:21:30;4.07;;;1.60;;
40022;SDS011;25713;-35.352;149.036;2023-03-01T07:24:00;2.28;;;1.33;;
40022;SDS011;25713;-35.352;149.036;2023-03-01T07:26:31;1.88;;;1.40;;
40022;SDS011;25713;-35.352;149.036;2023-03-01T07:29:01;1.35;;;1.20;;
40022;SDS011;25713;-35.352;149.036;2023-03-01T07:31:31;1.85;;;1.50;;
40022;SDS011;25713;-35.352;149.036;2023-03-01T07:34:00;1.58;;;1.40;;
40022;SDS011;25713;-35.352;149.036;2023-03-01T07:36:30;1.33;;;1.20;;
40022;SDS011;25713;-35.352;149.036;2023-03-01T07:38:59;3.50;;;1.20;;
40022;SDS011;25713;-35.352;149.036;2023-03-01T07:41:30;2.28;;;1.30;;
40022;SDS011;25713;-35.352;149.036;2023-03-01T07:44:00;3.78;;;1.48;;
40022;SDS011;25713;-35.352;149.036;2023-03-01T07:46:30;2.50;;;1.20;;
40022;SDS011;25713;-35.352;149.036;2023-03-01T07:48:59;1.92;;;1.42;;
40022;SDS011;25713;-35.352;149.036;2023-03-01T07:51:28;4.15;;;1.23;;
40022;SDS011;25713;-35.352;149.036;2023-03-01T07:53:58;1.60;;;1.17;;
40022;SDS011;25713;-35.352;149.036;2023-03-01T07:56:28;2.50;;;1.20;;
40022;SDS011;25713;-35.352;149.036;2023-03-01T07:58:59;1.30;;;1.20;;
40022;SDS011;25713;-35.352;149.036;2023-03-01T08:01:28;1.20;;;1.10;;
40022;SDS011;25713;-35.352;149.036;2023-03-01T08:03:58;2.03;;;1.00;;
40022;SDS011;25713;-35.352;149.036;2023-03-01T08:06:27;2.45;;;1.30;;
40022;SDS011;25713;-35.352;149.036;2023-03-01T08:08:57;2.83;;;1.00;;
40022;SDS011;25713;-35.352;149.036;2023-03-01T08:11:26;2.42;;;1.00;;
40022;SDS011;25713;-35.352;149.036;2023-03-01T08:13:59;1.80;;;1.13;;
40022;SDS011;25713;-35.352;149.036;2023-03-01T08:16:29;1.30;;;1.20;;
40022;SDS011;25713;-35.352;149.036;2023-03-01T08:19:02;2.20;;;1.35;;
40022;SDS011;25713;-35.352;149.036;2023-03-01T08:21:32;1.77;;;1.25;;
40022;SDS011;25713;-35.352;149.036;2023-03-01T08:24:02;1.38;;;1.20;;
40022;SDS011;25713;-35.352;149.036;2023-03-01T08:26:33;1.30;;;1.05;;
40022;SDS011;25713;-35.352;149.036;2023-03-01T08:29:06;2.58;;;1.10;;
40022;SDS011;25713;-35.352;149.036;2023-03-01T08:31:36;2.90;;;1.10;;
40022;SDS011;25713;-35.352;149.036;2023-03-01T08:34:07;2.38;;;0.93;;
40022;SDS011;25713;-35.352;149.036;2023-03-01T08:36:38;1.55;;;1.00;;
40022;SDS011;25713;-35.352;149.036;2023-03-01T08:39:09;1.90;;;1.10;;
40022;SDS011;25713;-35.352;149.036;2023-03-01T08:41:40;3.25;;;1.10;;
40022;SDS011;25713;-35.352;149.036;2023-03-01T08:44:13;1.13;;;0.98;;
40022;SDS011;25713;-35.352;149.036;2023-03-01T08:46:43;2.78;;;1.17;;
40022;SDS011;25713;-35.352;149.036;2023-03-01T08:49:13;1.77;;;1.10;;
40022;SDS011;25713;-35.352;149.036;2023-03-01T08:51:45;1.80;;;0.90;;
40022;SDS011;25713;-35.352;149.036;2023-03-01T08:54:15;2.08;;;0.90;;
40022;SDS011;25713;-35.352;149.036;2023-03-01T08:56:45;2.10;;;1.02;;
40022;SDS011;25713;-35.352;149.036;2023-03-01T08:59:17;2.17;;;1.02;;
40022;SDS011;25713;-35.352;149.036;2023-03-01T09:01:47;1.75;;;1.00;;
40022;SDS011;25713;-35.352;149.036;2023-03-01T09:04:16;1.67;;;0.88;;
40022;SDS011;25713;-35.352;149.036;2023-03-01T09:06:46;1.35;;;1.02;;
40022;SDS011;25713;-35.352;149.036;2023-03-01T09:09:16;1.52;;;0.98;;
40022;SDS011;25713;-35.352;149.036;2023-03-01T09:11:45;2.05;;;1.02;;
40022;SDS011;25713;-35.352;149.036;2023-03-01T09:14:18;0.85;;;0.80;;
40022;SDS011;25713;-35.352;149.036;2023-03-01T09:16:48;0.80;;;0.73;;
40022;SDS011;25713;-35.352;149.036;2023-03-01T09:19:17;1.73;;;0.82;;
40022;SDS011;25713;-35.352;149.036;2023-03-01T09:21:47;1.30;;;0.90;;
40022;SDS011;25713;-35.352;149.036;2023-03-01T09:24:16;2.72;;;1.10;;
40022;SDS011;25713;-35.352;149.036;2023-03-01T09:26:46;2.33;;;1.00;;
40022;SDS011;25713;-35.352;149.036;2023-03-01T09:29:19;0.88;;;0.80;;
40022;SDS011;25713;-35.352;149.036;2023-03-01T09:31:49;1.10;;;0.95;;
40022;SDS011;25713;-35.352;149.036;2023-03-01T09:34:18;1.08;;;0.95;;
40022;SDS011;25713;-35.352;149.036;2023-03-01T09:36:47;1.65;;;1.08;;
40022;SDS011;25713;-35.352;149.036;2023-03-01T09:39:17;0.90;;;0.80;;
40022;SDS011;25713;-35.352;149.036;2023-03-01T09:41:48;1.83;;;0.80;;
40022;SDS011;25713;-35.352;149.036;2023-03-01T09:44:31;2.42;;;0.98;;
40022;SDS011;25713;-35.352;149.036;2023-03-01T09:47:03;1.70;;;1.00;;
40022;SDS011;25713;-35.352;149.036;2023-03-01T09:49:38;1.17;;;0.80;;
40022;SDS011;25713;-35.352;149.036;2023-03-01T09:52:12;2.75;;;0.90;;
40022;SDS011;25713;-35.352;149.036;2023-03-01T09:54:52;2.20;;;0.98;;
40022;SDS011;25713;-35.352;149.036;2023-03-01T09:57:26;1.58;;;0.80;;
40022;SDS011;25713;-35.352;149.036;2023-03-01T10:05:42;2.75;;;0.80;;
40022;SDS011;25713;-35.352;149.036;2023-03-01T10:08:31;1.63;;;0.95;;
40022;SDS011;25713;-35.352;149.036;2023-03-01T10:11:05;2.45;;;1.00;;
40022;SDS011;25713;-35.352;149.036;2023-03-01T10:13:47;1.55;;;0.80;;
40022;SDS011;25713;-35.352;149.036;2023-03-01T10:16:26;0.93;;;0.80;;
40022;SDS011;25713;-35.352;149.036;2023-03-01T10:19:05;1.45;;;0.70;;
40022;SDS011;25713;-35.352;149.036;2023-03-01T10:21:39;1.05;;;0.95;;
40022;SDS011;25713;-35.352;149.036;2023-03-01T10:24:12;2.42;;;1.08;;
40022;SDS011;25713;-35.352;149.036;2023-03-01T10:26:48;2.80;;;0.80;;
40022;SDS011;25713;-35.352;149.036;2023-03-01T10:29:23;0.90;;;0.65;;
40022;SDS011;25713;-35.352;149.036;2023-03-01T10:31:58;1.50;;;0.95;;
40022;SDS011;25713;-35.352;149.036;2023-03-01T10:34:28;1.20;;;0.90;;
40022;SDS011;25713;-35.352;149.036;2023-03-01T10:36:59;0.68;;;0.68;;
40022;SDS011;25713;-35.352;149.036;2023-03-01T10:39:36;0.70;;;0.60;;
40022;SDS011;25713;-35.352;149.036;2023-03-01T10:42:22;2.35;;;0.80;;
40022;SDS011;25713;-35.352;149.036;2023-03-01T10:44:55;0.70;;;0.68;;
40022;SDS011;25713;-35.352;149.036;2023-03-01T10:47:26;1.52;;;0.60;;
40022;SDS011;25713;-35.352;149.036;2023-03-01T10:50:00;1.00;;;0.60;;
40022;SDS011;25713;-35.352;149.036;2023-03-01T10:52:34;0.98;;;0.70;;
40022;SDS011;25713;-35.352;149.036;2023-03-01T10:55:19;0.73;;;0.65;;
40022;SDS011;25713;-35.352;149.036;2023-03-01T10:58:06;0.70;;;0.70;;
40022;SDS011;25713;-35.352;149.036;2023-03-01T11:00:47;1.00;;;0.70;;
40022;SDS011;25713;-35.352;149.036;2023-03-01T11:03:20;0.77;;;0.60;;
40022;SDS011;25713;-35.352;149.036;2023-03-01T11:05:58;2.00;;;0.82;;
40022;SDS011;25713;-35.352;149.036;2023-03-01T11:08:34;0.77;;;0.60;;
40022;SDS011;25713;-35.352;149.036;2023-03-01T11:11:05;1.73;;;0.63;;
40022;SDS011;25713;-35.352;149.036;2023-03-01T11:13:47;0.90;;;0.70;;
40022;SDS011;25713;-35.352;149.036;2023-03-01T11:16:23;0.70;;;0.60;;
40022;SDS011;25713;-35.352;149.036;2023-03-01T11:19:04;1.05;;;0.60;;
40022;SDS011;25713;-35.352;149.036;2023-03-01T11:21:50;1.10;;;0.65;;
40022;SDS011;25713;-35.352;149.036;2023-03-01T11:24:24;1.25;;;0.57;;
40022;SDS011;25713;-35.352;149.036;2023-03-01T11:26:57;2.03;;;0.70;;
40022;SDS011;25713;-35.352;149.036;2023-03-01T11:29:32;1.85;;;0.75;;
40022;SDS011;25713;-35.352;149.036;2023-03-01T11:32:07;0.63;;;0.50;;
40022;SDS011;25713;-35.352;149.036;2023-03-01T11:34:45;0.67;;;0.60;;
40022;SDS011;25713;-35.352;149.036;2023-03-01T11:37:24;0.60;;;0.50;;
40022;SDS011;25713;-35.352;149.036;2023-03-01T11:40:03;1.25;;;0.68;;
40022;SDS011;25713;-35.352;149.036;2023-03-01T11:42:48;0.90;;;0.70;;
40022;SDS011;25713;-35.352;149.036;2023-03-01T11:45:27;0.68;;;0.60;;
40022;SDS011;25713;-35.352;149.036;2023-03-01T11:48:07;0.70;;;0.50;;
40022;SDS011;25713;-35.352;149.036;2023-03-01T11:51:12;1.42;;;0.70;;
40022;SDS011;25713;-35.352;149.036;2023-03-01T11:56:49;1.90;;;0.70;;
40022;SDS011;25713;-35.352;149.036;2023-03-01T11:59:33;1.20;;;0.70;;
40022;SDS011;25713;-35.352;149.036;2023-03-01T12:02:22;1.37;;;0.80;;
40022;SDS011;25713;-35.352;149.036;2023-03-01T12:05:18;0.98;;;0.65;;
40022;SDS011;25713;-35.352;149.036;2023-03-01T12:08:03;0.68;;;0.50;;
40022;SDS011;25713;-35.352;149.036;2023-03-01T12:10:42;1.33;;;0.70;;
40022;SDS011;25713;-35.352;149.036;2023-03-01T12:13:23;0.60;;;0.57;;
40022;SDS011;25713;-35.352;149.036;2023-03-01T12:16:16;1.23;;;0.60;;
40022;SDS011;25713;-35.352;149.036;2023-03-01T12:18:55;2.20;;;0.70;;
40022;SDS011;25713;-35.352;149.036;2023-03-01T12:21:39;1.83;;;0.70;;
40022;SDS011;25713;-35.352;149.036;2023-03-01T12:24:26;1.40;;;0.70;;
40022;SDS011;25713;-35.352;149.036;2023-03-01T12:27:34;1.60;;;0.50;;
40022;SDS011;25713;-35.352;149.036;2023-03-01T12:30:35;0.98;;;0.60;;
40022;SDS011;25713;-35.352;149.036;2023-03-01T12:33:18;0.50;;;0.40;;
40022;SDS011;25713;-35.352;149.036;2023-03-01T12:36:04;2.05;;;0.70;;
40022;SDS011;25713;-35.352;149.036;2023-03-01T12:38:48;2.28;;;0.70;;
40022;SDS011;25713;-35.352;149.036;2023-03-01T12:41:35;0.40;;;0.40;;
40022;SDS011;25713;-35.352;149.036;2023-03-01T12:44:26;0.90;;;0.60;;
40022;SDS011;25713;-35.352;149.036;2023-03-01T12:49:51;0.90;;;0.60;;
40022;SDS011;25713;-35.352;149.036;2023-03-01T12:52:24;2.15;;;0.70;;
40022;SDS011;25713;-35.352;149.036;2023-03-01T12:55:00;1.67;;;0.60;;
40022;SDS011;25713;-35.352;149.036;2023-03-01T12:57:36;1.90;;;0.70;;
40022;SDS011;25713;-35.352;149.036;2023-03-01T13:00:17;1.60;;;0.60;;
40022;SDS011;25713;-35.352;149.036;2023-03-01T13:02:56;1.40;;;0.50;;
40022;SDS011;25713;-35.352;149.036;2023-03-01T13:05:36;2.25;;;0.60;;
40022;SDS011;25713;-35.352;149.036;2023-03-01T13:08:15;2.95;;;0.68;;
40022;SDS011;25713;-35.352;149.036;2023-03-01T13:10:53;0.90;;;0.50;;
40022;SDS011;25713;-35.352;149.036;2023-03-01T13:13:29;0.90;;;0.60;;
40022;SDS011;25713;-35.352;149.036;2023-03-01T13:16:11;1.58;;;0.50;;
40022;SDS011;25713;-35.352;149.036;2023-03-01T13:19:09;1.40;;;0.73;;
40022;SDS011;25713;-35.352;149.036;2023-03-01T13:21:42;1.25;;;0.57;;
40022;SDS011;25713;-35.352;149.036;2023-03-01T13:24:25;0.90;;;0.60;;
40022;SDS011;25713;-35.352;149.036;2023-03-01T13:29:56;0.60;;;0.50;;
40022;SDS011;25713;-35.352;149.036;2023-03-01T13:32:27;0.68;;;0.40;;
40022;SDS011;25713;-35.352;149.036;2023-03-01T13:34:58;1.25;;;0.73;;
40022;SDS011;25713;-35.352;149.036;2023-03-01T13:37:33;2.17;;;0.50;;
40022;SDS011;25713;-35.352;149.036;2023-03-01T13:46:01;1.42;;;0.60;;
40022;SDS011;25713;-35.352;149.036;2023-03-01T13:48:36;0.73;;;0.60;;
40022;SDS011;25713;-35.352;149.036;2023-03-01T13:51:08;1.77;;;0.70;;
40022;SDS011;25713;-35.352;149.036;2023-03-01T13:53:40;1.93;;;0.90;;
40022;SDS011;25713;-35.352;149.036;2023-03-01T13:56:12;0.57;;;0.57;;
40022;SDS011;25713;-35.352;149.036;2023-03-01T13:58:48;1.48;;;0.73;;
40022;SDS011;25713;-35.352;149.036;2023-03-01T14:04:18;1.63;;;0.50;;
40022;SDS011;25713;-35.352;149.036;2023-03-01T14:06:49;1.42;;;0.73;;
40022;SDS011;25713;-35.352;149.036;2023-03-01T14:09:19;0.60;;;0.50;;
40022;SDS011;25713;-35.352;149.036;2023-03-01T14:12:01;1.80;;;0.80;;
40022;SDS011;25713;-35.352;149.036;2023-03-01T14:14:51;1.23;;;0.75;;
40022;SDS011;25713;-35.352;149.036;2023-03-01T14:20:37;1.10;;;0.55;;
40022;SDS011;25713;-35.352;149.036;2023-03-01T14:23:10;1.23;;;0.73;;
40022;SDS011;25713;-35.352;149.036;2023-03-01T14:25:46;2.30;;;0.60;;
40022;SDS011;25713;-35.352;149.036;2023-03-01T14:28:18;1.05;;;0.63;;
40022;SDS011;25713;-35.352;149.036;2023-03-01T14:30:49;0.70;;;0.55;;
40022;SDS011;25713;-35.352;149.036;2023-03-01T14:33:21;2.20;;;0.60;;
40022;SDS011;25713;-35.352;149.036;2023-03-01T14:35:56;2.33;;;0.60;;
40022;SDS011;25713;-35.352;149.036;2023-03-01T14:38:30;1.60;;;0.60;;
40022;SDS011;25713;-35.352;149.036;2023-03-01T14:41:01;0.50;;;0.50;;
40022;SDS011;25713;-35.352;149.036;2023-03-01T14:43:33;0.77;;;0.50;;
40022;SDS011;25713;-35.352;149.036;2023-03-01T14:46:05;0.88;;;0.50;;
40022;SDS011;25713;-35.352;149.036;2023-03-01T14:48:44;1.63;;;0.57;;
40022;SDS011;25713;-35.352;149.036;2023-03-01T16:02:36;0.50;;;0.50;;
40022;SDS011;25713;-35.352;149.036;2023-03-01T16:05:08;2.03;;;0.88;;
40022;SDS011;25713;-35.352;149.036;2023-03-01T16:07:45;1.25;;;0.60;;
40022;SDS011;25713;-35.352;149.036;2023-03-01T16:10:14;1.10;;;0.70;;
40022;SDS011;25713;-35.352;149.036;2023-03-01T16:12:44;1.25;;;0.60;;
40022;SDS011;25713;-35.352;149.036;2023-03-01T16:15:14;1.50;;;0.70;;
40022;SDS011;25713;-35.352;149.036;2023-03-01T16:17:47;1.85;;;0.70;;
40022;SDS011;25713;-35.352;149.036;2023-03-01T16:20:22;1.00;;;0.70;;